x

Cape Edgecumbe - 25nm Ssw Of Cape Edgecumbe, Ak (46084) Weather Station

6:50am - Tue 28th Jul 2015 All times are AKDT. -8 hours from GMT.

  • Wind
    16mph, 20mph gusts
  • Sea Temp 57°f
  • Air Temp 57°f
  • Sea Pressure 1014.2mb
  • Cape Edgecumbe - 25nm Ssw Of Cape Edgecumbe, Ak
  • Cape Edgecumbe - 25nm Ssw Of Cape Edgecumbe, Ak

More Historic Weather Station data

Upgrade to MSW Pro to gain access to the past 30 days of data for over 8000 Wavebouys and Weather Stations around the globe.

Join Pro

Comparision Forecast

View Surf forecast
   
Tue 07/28 6:50am  -   -   -  16 20 mph 1014.2mb 57f 57f
5:50am 8ft 8s 6s 16 18 mph 1013.8mb 57f 57f
4:50am 7ft 8s 5s 18 20 mph 1013.3mb 57f 57f
3:50am  -   -   -  22 25 mph 1012.8mb 57f 57f
2:50am  -   -   -  22 27 mph 1012.1mb 57f 57f
1:50am 7ft 8s 6s 22 27 mph 1011.2mb 57f 56f
12:50am 6ft 9s 6s 18 20 mph 1010.4mb 57f 56f
Mon 07/27 11:50pm  -   -   -  11 16 mph 1009.7mb 57f 57f
10:50pm  -   -   -  16 18 mph 1009.4mb 57f 57f
9:50pm 7ft 10s 6s 11 18 mph 1009.1mb 57f 57f
8:50pm  -   -   -  18 22 mph 1008.9mb 57f 56f
7:50pm  -   -   -  13 18 mph 1008.8mb 57f 57f
6:50pm 7.5ft 9s 6s 16 20 mph 1008.8mb 57f 57f
5:50pm  -   -   -  18 22 mph 1009.2mb 57f 57f
4:50pm  -   -   -  18 20 mph 1009.7mb 57f 57f
3:50pm 7ft 8s 5s 18 22 mph 1010mb 57f 58f
2:50pm 7ft 8s 6s 16 18 mph 1010.4mb 57f 56f
1:50pm 7.5ft 8s 6s 16 22 mph 1010.4mb 57f 56f
12:50pm 7ft 9s 6s 13 18 mph 1010.6mb 57f 57f
11:50am 7.5ft 8s 7s 16
mph
1010.8mb 57f 56f
10:50am  -   -   -  11 13 mph 1011.3mb 57f 56f
9:50am  -   -   -  13 18 mph 1011.5mb 57f 56f
8:50am 6.5ft 8s 6s 13 18 mph 1011.4mb 57f 56f
7:50am 6.5ft 8s 6s 13 18 mph 1011.7mb 57f 56f
6:50am  -   -   -  16 18 mph 1011.7mb 57f 56f
5:50am  -   -   -  13 16 mph 1011.7mb 57f 56f
4:50am  -   -   -  13 16 mph 1011.8mb 57f 56f
3:50am 6ft 7s 6s 11 16 mph 1011.9mb 57f 56f
2:50am 6ft 8s 5s 13 18 mph 1012.2mb 57f 56f
1:50am  -   -   -  16 22 mph 1012.3mb 57f 56f
12:50am 6ft 8s 6s 13 18 mph 1012.5mb 57f 56f
Sun 07/26 11:50pm  -   -   -  13 16 mph 1012.7mb 57f 56f
10:50pm  -   -   -  16
mph
1012.9mb - 55f
9:50pm  -   -   -  13
mph
- - 57f
8:50pm  -   -   -  13 16 mph 1012.9mb 57f 57f
7:50pm  -   -   -  11 13 mph 1012.8mb 57f 56f
6:50pm 5ft 6s 5s 16 18 mph 1012.9mb 57f 57f
5:50pm 5ft 5s 5s 13 20 mph 1013mb 57f 57f
4:50pm 5ft 5s 5s 13 18 mph 1013.1mb 58f 56f
3:50pm  -   -   -  20 22 mph 1013.1mb 58f 56f
2:50pm  -   -   -  20 25 mph 1013.4mb - 56f
1:50pm 4.5ft 8s 5s 18 22 mph 1013.8mb 58f 56f
12:50pm  -   -   -  16 20 mph 1014.3mb 58f 56f
11:50am 3.5ft 8s 5s 13
mph
- - 56f
10:50am  -   -   -  16 18 mph 1014.6mb 58f 56f
9:50am 3.5ft 8s 6s 13 16 mph 1014.8mb 58f 56f
8:50am  -   -   -  9 11 mph 1015.1mb 58f 55f
7:50am  -   -   -  9 11 mph 1015.4mb 58f 56f
6:50am 4.5ft 8s 6s 11
mph
1015.5mb 58f 56f
5:50am 4ft 8s 6s 11 13 mph 1015.6mb 58f 56f
4:50am 4.5ft 8s 6s 9 11 mph 1015.7mb 58f 58f
3:50am  -   -   -  7 9 mph 1015.8mb 58f 58f
2:50am  -   -   -  7 9 mph 1016.1mb 58f 57f
1:50am  -   -   -  9 11 mph 1016.3mb 58f 58f
Sat 07/25 11:50pm 4.5ft 8s 6s 11 18 mph 1016.4mb 59f 58f
10:50pm 4.5ft 10s 6s 16 18 mph 1016mb 59f 58f
9:50pm 4.5ft 8s 6s 11 13 mph 1015.9mb 59f 59f
8:50pm  -   -   -  9 11 mph 1015.9mb 59f 59f
7:50pm  -   -   -  11 13 mph 1015.7mb 59f 59f
6:50pm  -   -   -  11 16 mph 1015.6mb 59f 59f
5:50pm  -   -   -  11 13 mph 1015.6mb 59f 59f
4:50pm 5ft 9s 6s 9 11 mph 1015.4mb 59f 59f
3:50pm  -   -   -  9
mph
- - -
2:50pm 4.5ft 10s 6s 11 13 mph 1015.4mb 58f 59f
1:50pm  -   -   -  9 11 mph 1015.2mb 58f 59f
12:50pm  -   -   -  9 11 mph - 58f 58f
11:50am  -   -   -  9 11 mph 1014.6mb 58f 58f
10:50am 5.5ft 9s 7s 9 11 mph 1014.2mb 58f 58f
9:50am  -   -   -  9
mph
1013.8mb - 58f
8:50am  -   -   -  9 11 mph 1013.5mb 58f 57f
7:50am 5ft 10s 7s 9 11 mph 1013.2mb 57f 57f
6:50am 5ft 9s 7s 9
mph
1012.8mb 57f 57f
5:50am 6ft 10s 7s 11
mph
1012.5mb 57f 57f
4:50am  -   -   -  11
mph
1012.3mb 57f 57f
3:50am  -   -   -  11 13 mph 1012.2mb 58f 57f
2:50am  -   -   -  11
mph
1012.1mb 58f 57f
1:50am  -   -   -  11 13 mph 1012mb 58f 57f
12:50am  -   -   -  11 13 mph 1011.6mb 59f 57f
Fri 07/24 11:50pm 7ft 10s 7s 11 13 mph 1011.3mb 59f 57f
10:50pm 7ft 10s 7s 11 13 mph 1011.2mb 59f 57f
9:50pm  -   -   -  9 11 mph 1010.7mb 59f 57f
8:50pm  -   -   -  11 13 mph 1010.3mb 59f 58f
7:50pm 7ft 10s 8s 11 13 mph 1009.9mb 59f 58f
6:50pm 7ft 11s 8s 11 13 mph 1009.9mb 59f 58f
5:50pm 7ft 11s 8s 11 13 mph 1009.9mb 59f 57f
4:50pm 7.5ft 11s 8s 9 11 mph 1009.8mb 59f 57f